West Rushville, Ohio
Current Conditions -  °F | °C
As of 7:53 PM on Friday 28 Nov 2014 (Local Time) from KLHQ Reporting Station
Broken Clouds Broken Clouds  
Wind Chill: 24°   Ceiling: 12000
Heat Index: 31°   Visibility: 10mi
Dew Point: 17°   Wind: 7mph
Humidity: 57%   Direction: 150°SSE
Pressure: 30.19"   Gusts: NA
Location:  39.76°N, 82.45°W
Report Text: KLHQ 290053Z AUTO 15006KT 10SM BKN120 M01/M08 A3019 RMK AO2 SLP234 T10061083
Loading
Personal Weather Stations






























Interactive Weather Map New forecast layout! Learn more

10-Day Weather Forecast

Advertisements
Track Severe Weather on mobile